createdAt,value
2023-01-17T00:02:44.293Z,3.80
2023-01-17T00:05:47.933Z,3.55
2023-01-17T00:08:51.938Z,3.75
2023-01-17T00:11:37.146Z,3.50
2023-01-17T00:14:22.595Z,3.70
2023-01-17T00:17:07.849Z,3.78
2023-01-17T00:20:11.534Z,3.38
2023-01-17T00:23:23.039Z,3.60
2023-01-17T00:26:19.263Z,3.42
2023-01-17T00:29:04.346Z,4.20
2023-01-17T00:31:49.319Z,4.25
2023-01-17T00:34:34.318Z,5.07
2023-01-17T00:37:19.381Z,5.38
2023-01-17T00:40:04.706Z,5.22
2023-01-17T00:42:49.704Z,5.68
2023-01-17T00:45:53.467Z,5.40
2023-01-17T00:48:58.453Z,6.03
2023-01-17T00:52:02.550Z,5.60
2023-01-17T00:55:06.457Z,5.68
2023-01-17T00:58:10.250Z,5.15
2023-01-17T01:01:14.026Z,5.10
2023-01-17T01:04:18.024Z,5.40
2023-01-17T01:07:21.884Z,5.28
2023-01-17T01:10:26.239Z,4.78
2023-01-17T01:13:30.311Z,4.75
2023-01-17T01:16:34.779Z,5.03
2023-01-17T01:19:38.485Z,5.57
2023-01-17T01:22:42.535Z,5.28
2023-01-17T01:25:46.577Z,5.10
2023-01-17T01:28:50.290Z,5.38
2023-01-17T01:31:54.162Z,5.47
2023-01-17T01:34:39.341Z,5.55
2023-01-17T01:37:24.634Z,6.00
2023-01-17T01:40:10.194Z,5.63
2023-01-17T01:42:57.968Z,5.25
2023-01-17T01:45:48.745Z,5.40
2023-01-17T01:48:38.293Z,5.72
2023-01-17T01:51:31.435Z,5.53
2023-01-17T01:54:21.566Z,6.13
2023-01-17T01:57:09.670Z,5.28
2023-01-17T01:59:58.932Z,5.28
2023-01-17T02:02:48.505Z,5.82
2023-01-17T02:05:34.742Z,5.88
2023-01-17T02:08:22.807Z,5.97
2023-01-17T02:11:08.111Z,5.45
2023-01-17T02:13:53.308Z,5.50
2023-01-17T02:16:50.529Z,5.57
2023-01-17T02:19:53.910Z,5.45
2023-01-17T02:22:50.967Z,6.18
2023-01-17T02:26:17.589Z,6.18
2023-01-17T02:29:11.623Z,6.28
2023-01-17T02:32:31.831Z,5.68
2023-01-17T02:35:28.100Z,5.72
2023-01-17T02:38:36.781Z,5.75
2023-01-17T02:41:31.054Z,6.15
2023-01-17T02:44:19.121Z,6.22
2023-01-17T02:47:21.413Z,6.57
2023-01-17T02:50:13.736Z,6.90
2023-01-17T02:53:26.001Z,7.65
2023-01-17T02:56:45.578Z,7.60
2023-01-17T02:59:46.078Z,8.88
2023-01-17T03:02:57.258Z,8.85
2023-01-17T03:05:54.350Z,8.45
2023-01-17T03:08:46.101Z,8.77
2023-01-17T03:11:31.483Z,8.38
2023-01-17T03:14:16.797Z,8.40
2023-01-17T03:17:01.798Z,8.10
2023-01-17T03:19:46.972Z,7.47
2023-01-17T03:22:32.071Z,7.10
2023-01-17T03:25:17.573Z,5.97
2023-01-17T03:28:02.956Z,5.90
2023-01-17T03:30:47.890Z,6.25
2023-01-17T03:33:33.379Z,6.32
2023-01-17T03:36:20.223Z,5.65
2023-01-17T03:39:05.385Z,5.63
2023-01-17T03:41:50.828Z,5.53
2023-01-17T03:44:36.062Z,5.13
2023-01-17T03:47:21.389Z,5.57
2023-01-17T03:50:06.343Z,4.95
2023-01-17T03:52:51.897Z,5.78
2023-01-17T03:55:37.013Z,5.10
2023-01-17T03:58:22.013Z,5.22
2023-01-17T04:01:07.481Z,5.03
2023-01-17T04:03:52.611Z,5.03
2023-01-17T04:06:38.067Z,5.93
2023-01-17T04:09:23.275Z,6.35
2023-01-17T04:12:09.477Z,6.47
2023-01-17T04:14:54.797Z,6.57
2023-01-17T04:17:39.942Z,5.53
2023-01-17T04:20:32.852Z,4.93
2023-01-17T04:23:18.678Z,5.40
2023-01-17T04:26:04.045Z,4.93
2023-01-17T04:28:49.574Z,5.68
2023-01-17T04:31:34.763Z,5.35
2023-01-17T04:34:19.875Z,6.10
2023-01-17T04:37:05.159Z,8.18
2023-01-17T04:39:50.450Z,6.93
2023-01-17T04:42:35.595Z,7.47
2023-01-17T04:45:20.621Z,6.95
2023-01-17T04:48:06.452Z,6.63
2023-01-17T04:50:51.718Z,7.25
2023-01-17T04:53:40.127Z,6.82
2023-01-17T04:56:25.368Z,6.07
2023-01-17T04:59:10.448Z,6.30
2023-01-17T05:01:55.537Z,5.75
2023-01-17T05:04:40.764Z,7.15
2023-01-17T05:07:25.648Z,6.30
2023-01-17T05:10:11.183Z,5.90
2023-01-17T05:12:57.847Z,5.68
2023-01-17T05:15:43.290Z,5.63
2023-01-17T05:18:28.547Z,5.75
2023-01-17T05:21:13.628Z,5.68
2023-01-17T05:23:58.630Z,6.32
2023-01-17T05:26:43.789Z,6.00
2023-01-17T05:29:30.288Z,5.35
2023-01-17T05:32:15.483Z,5.32
2023-01-17T05:35:02.489Z,4.90
2023-01-17T05:37:49.526Z,4.90
2023-01-17T05:40:34.698Z,5.00
2023-01-17T05:43:21.996Z,4.57
2023-01-17T05:46:07.639Z,5.35
2023-01-17T05:48:52.659Z,5.22
2023-01-17T05:51:39.530Z,6.22
2023-01-17T05:54:24.638Z,5.75
2023-01-17T05:57:09.875Z,5.82
2023-01-17T05:59:54.828Z,5.85
2023-01-17T06:02:40.355Z,5.93
2023-01-17T06:05:26.792Z,6.53
2023-01-17T06:08:11.817Z,6.50
2023-01-17T06:10:59.156Z,6.20
2023-01-17T06:13:44.703Z,5.93
2023-01-17T06:16:30.033Z,4.85
2023-01-17T06:19:15.161Z,5.43
2023-01-17T06:22:00.298Z,5.57
2023-01-17T06:24:45.488Z,5.80
2023-01-17T06:27:30.769Z,6.25
2023-01-17T06:30:16.264Z,5.80
2023-01-17T06:33:01.859Z,5.82
2023-01-17T06:35:51.528Z,6.57
2023-01-17T06:38:37.095Z,6.20
2023-01-17T06:41:23.288Z,6.35
2023-01-17T06:44:09.882Z,6.57
2023-01-17T06:46:55.254Z,6.03
2023-01-17T06:49:40.446Z,6.95
2023-01-17T06:52:25.400Z,5.50
2023-01-17T06:55:10.606Z,6.10
2023-01-17T06:57:57.721Z,5.78
2023-01-17T07:00:42.588Z,6.30
2023-01-17T07:03:27.650Z,6.15
2023-01-17T07:06:12.814Z,6.57
2023-01-17T07:08:59.006Z,6.05
2023-01-17T07:11:45.298Z,6.90
2023-01-17T07:14:30.928Z,5.93
2023-01-17T07:17:15.973Z,6.45
2023-01-17T07:20:01.523Z,6.32
2023-01-17T07:22:46.938Z,6.38
2023-01-17T07:25:32.433Z,6.50
2023-01-17T07:28:17.586Z,6.60
2023-01-17T07:31:08.005Z,9.48
2023-01-17T07:33:53.288Z,11.32
2023-01-17T07:36:38.618Z,11.18
2023-01-17T07:39:23.826Z,9.07
2023-01-17T07:42:09.310Z,9.25
2023-01-17T07:44:54.470Z,29.05
2023-01-17T07:47:39.869Z,21.00
2023-01-17T07:50:24.814Z,10.07
2023-01-17T07:53:10.426Z,8.80
2023-01-17T07:55:55.905Z,7.70
2023-01-17T07:58:40.997Z,6.53
2023-01-17T08:01:27.228Z,7.35
2023-01-17T08:04:14.044Z,6.60
2023-01-17T08:07:00.522Z,6.35
2023-01-17T08:09:49.588Z,6.55
2023-01-17T08:12:35.961Z,5.60
2023-01-17T08:15:20.999Z,6.15
2023-01-17T08:18:05.991Z,6.53
2023-01-17T08:20:50.995Z,6.80
2023-01-17T08:23:36.024Z,6.95
2023-01-17T08:26:22.390Z,6.38
2023-01-17T08:29:08.223Z,6.75
2023-01-17T08:31:54.039Z,6.22
2023-01-17T08:34:39.114Z,7.15
2023-01-17T08:37:24.451Z,6.93
2023-01-17T08:40:11.039Z,6.70
2023-01-17T08:42:58.130Z,6.32
2023-01-17T08:45:48.212Z,7.53
2023-01-17T08:51:17.967Z,7.50
2023-01-17T08:54:02.990Z,7.43
2023-01-17T08:56:48.485Z,6.95
2023-01-17T08:59:33.609Z,7.03
2023-01-17T09:02:19.711Z,7.22
2023-01-17T09:05:05.081Z,6.60
2023-01-17T09:07:50.020Z,7.82
2023-01-17T09:10:35.105Z,7.45
2023-01-17T09:13:21.182Z,7.30
2023-01-17T09:16:08.523Z,7.38
2023-01-17T09:18:55.936Z,7.30
2023-01-17T09:21:41.396Z,6.95
2023-01-17T09:24:26.287Z,8.07
2023-01-17T09:27:11.585Z,8.02
2023-01-17T09:29:56.749Z,7.55
2023-01-17T09:32:41.930Z,6.90
2023-01-17T09:35:27.246Z,8.38
2023-01-17T09:38:13.122Z,8.02
2023-01-17T09:40:58.501Z,8.18
2023-01-17T09:43:50.845Z,9.25
2023-01-17T09:46:46.198Z,8.65
2023-01-17T09:49:46.685Z,7.97
2023-01-17T09:52:33.277Z,7.97
2023-01-17T09:55:19.764Z,9.70
2023-01-17T09:58:11.277Z,8.98
2023-01-17T10:00:56.533Z,10.73
2023-01-17T10:04:02.451Z,12.35
2023-01-17T10:07:11.264Z,11.90
2023-01-17T10:10:15.324Z,8.30
2023-01-17T10:13:13.689Z,8.32
2023-01-17T10:16:05.118Z,9.23
2023-01-17T10:19:12.743Z,11.13
2023-01-17T10:22:25.800Z,9.15
2023-01-17T10:25:39.027Z,9.82
2023-01-17T10:28:36.157Z,9.73
2023-01-17T10:31:27.675Z,8.13
2023-01-17T10:34:18.927Z,9.38
2023-01-17T10:37:47.851Z,9.40
2023-01-17T10:40:51.129Z,8.43
2023-01-17T10:43:44.237Z,8.55
2023-01-17T10:46:47.240Z,9.75
2023-01-17T10:49:32.692Z,10.65
2023-01-17T10:52:39.778Z,9.70
2023-01-17T10:55:40.287Z,19.30
2023-01-17T10:58:25.608Z,12.88
2023-01-17T11:01:18.865Z,11.48
2023-01-17T11:04:11.039Z,11.60
2023-01-17T11:07:17.699Z,10.30
2023-01-17T11:10:03.003Z,10.77
2023-01-17T11:12:48.130Z,9.75
2023-01-17T11:15:39.459Z,12.02
2023-01-17T11:18:28.836Z,15.73
2023-01-17T11:21:21.376Z,12.60
2023-01-17T11:24:12.231Z,12.00
2023-01-17T11:26:58.218Z,12.98
2023-01-17T11:29:43.185Z,13.85
2023-01-17T11:32:33.621Z,11.35
2023-01-17T11:35:25.460Z,9.95
2023-01-17T11:38:21.895Z,10.27
2023-01-17T11:41:21.794Z,10.32
2023-01-17T11:44:30.380Z,10.23
2023-01-17T11:47:19.002Z,9.70
2023-01-17T11:50:23.644Z,8.98
2023-01-17T11:53:33.539Z,9.43
2023-01-17T11:56:33.060Z,10.70
2023-01-17T11:59:30.012Z,15.63
2023-01-17T12:02:37.023Z,13.55
2023-01-17T12:05:48.145Z,11.52
2023-01-17T12:08:55.625Z,10.63
2023-01-17T12:12:10.661Z,9.25
2023-01-17T12:15:04.896Z,8.93
2023-01-17T12:18:15.950Z,9.07
2023-01-17T12:21:17.370Z,8.88
2023-01-17T12:24:33.167Z,14.35
2023-01-17T12:27:24.217Z,15.10
2023-01-17T12:30:18.235Z,9.98
2023-01-17T12:33:17.952Z,7.43
2023-01-17T12:36:33.112Z,7.18
2023-01-17T12:39:24.683Z,6.63
2023-01-17T12:42:20.117Z,5.50
2023-01-17T12:45:09.727Z,5.85
2023-01-17T12:48:01.372Z,7.03
2023-01-17T12:51:00.182Z,9.23
2023-01-17T12:54:12.143Z,15.57
2023-01-17T12:57:03.748Z,14.18
2023-01-17T13:00:12.636Z,12.95
2023-01-17T13:03:15.704Z,9.10
2023-01-17T13:06:02.725Z,8.70
2023-01-17T13:08:54.035Z,6.72
2023-01-17T13:11:49.754Z,7.10
2023-01-17T13:14:35.846Z,6.75
2023-01-17T13:17:33.374Z,7.30
2023-01-17T13:20:59.320Z,6.57
2023-01-17T13:24:02.710Z,6.90
2023-01-17T13:26:50.822Z,7.65
2023-01-17T13:29:40.995Z,6.38
2023-01-17T13:32:46.290Z,6.85
2023-01-17T13:35:42.736Z,6.70
2023-01-17T13:38:37.032Z,6.60
2023-01-17T13:41:34.609Z,7.20
2023-01-17T13:44:23.001Z,6.72
2023-01-17T13:47:17.451Z,7.53
2023-01-17T13:50:02.342Z,7.22
2023-01-17T13:52:47.291Z,7.07
2023-01-17T13:55:53.286Z,6.88
2023-01-17T13:58:51.705Z,7.47
2023-01-17T14:01:46.111Z,7.50
2023-01-17T14:05:08.953Z,7.07
2023-01-17T14:07:55.676Z,7.75
2023-01-17T14:10:49.972Z,8.70
2023-01-17T14:13:37.561Z,7.50
2023-01-17T14:16:22.465Z,7.72
2023-01-17T14:19:25.724Z,8.43
2023-01-17T14:22:31.384Z,8.50
2023-01-17T14:25:20.532Z,8.35
2023-01-17T14:28:30.004Z,8.75
2023-01-17T14:31:16.749Z,9.65
2023-01-17T14:34:13.037Z,12.20
2023-01-17T14:37:20.323Z,13.55
2023-01-17T14:40:20.304Z,10.50
2023-01-17T14:43:40.224Z,8.65
2023-01-17T14:46:32.231Z,9.13
2023-01-17T14:49:24.157Z,9.18
2023-01-17T14:52:18.132Z,8.80
2023-01-17T14:55:15.825Z,10.52
2023-01-17T14:58:01.156Z,9.45
2023-01-17T15:00:49.714Z,9.95
2023-01-17T15:03:43.293Z,9.73
2023-01-17T15:06:40.786Z,9.50
2023-01-17T15:09:29.431Z,10.80
2023-01-17T15:12:14.724Z,10.85
2023-01-17T15:15:00.827Z,10.35
2023-01-17T15:17:45.719Z,9.73
2023-01-17T15:20:31.123Z,10.18
2023-01-17T15:23:20.200Z,9.20
2023-01-17T15:26:11.047Z,9.75
2023-01-17T15:29:04.652Z,9.60
2023-01-17T15:31:55.517Z,9.68
2023-01-17T15:34:44.802Z,9.85
2023-01-17T15:37:33.241Z,9.45
2023-01-17T15:40:23.953Z,9.65
2023-01-17T15:43:20.083Z,10.02
2023-01-17T15:46:05.651Z,9.18
2023-01-17T15:48:51.670Z,9.43
2023-01-17T15:51:38.815Z,9.85
2023-01-17T15:54:47.923Z,9.60
2023-01-17T15:57:39.006Z,8.80
2023-01-17T16:00:38.263Z,9.88
2023-01-17T16:03:26.369Z,10.30
2023-01-17T16:06:29.709Z,9.10
2023-01-17T16:09:24.787Z,9.57
2023-01-17T16:12:09.827Z,8.30
2023-01-17T16:15:11.149Z,9.10
2023-01-17T16:18:00.818Z,8.35
2023-01-17T16:20:58.862Z,8.93
2023-01-17T16:23:46.838Z,9.75
2023-01-17T16:26:31.752Z,9.32
2023-01-17T16:29:16.876Z,9.45
2023-01-17T16:32:08.604Z,9.90
2023-01-17T16:34:53.833Z,10.48
2023-01-17T16:37:39.181Z,11.10
2023-01-17T16:40:27.692Z,10.65
2023-01-17T16:43:14.535Z,10.63
2023-01-17T16:46:05.892Z,10.60
2023-01-17T16:48:51.861Z,11.55
2023-01-17T16:51:37.291Z,10.25
2023-01-17T16:54:22.931Z,9.85
2023-01-17T16:57:07.994Z,11.18
2023-01-17T16:59:53.183Z,10.38
2023-01-17T17:02:39.451Z,10.43
2023-01-17T17:05:25.978Z,11.18
2023-01-17T17:08:11.407Z,11.57
2023-01-17T17:11:17.344Z,11.82
2023-01-17T17:14:02.721Z,11.77
2023-01-17T17:16:51.626Z,12.60
2023-01-17T17:19:36.597Z,12.73
2023-01-17T17:22:21.527Z,12.55
2023-01-17T17:25:07.152Z,12.35
2023-01-17T17:27:52.874Z,12.55
2023-01-17T17:30:38.305Z,13.50
2023-01-17T17:33:23.601Z,12.20
2023-01-17T17:36:12.302Z,11.68
2023-01-17T17:38:58.111Z,11.68
2023-01-17T17:41:44.577Z,11.75
2023-01-17T17:44:29.988Z,11.95
2023-01-17T17:47:16.106Z,12.05
2023-01-17T17:50:01.459Z,12.38
2023-01-17T17:52:48.295Z,11.73
2023-01-17T17:55:35.156Z,13.10
2023-01-17T17:58:20.864Z,13.35
2023-01-17T18:01:06.844Z,13.45
2023-01-17T18:03:53.838Z,13.75
2023-01-17T18:06:40.276Z,13.50
2023-01-17T18:09:25.455Z,13.25
2023-01-17T18:12:10.517Z,13.88
2023-01-17T18:14:55.773Z,13.23
2023-01-17T18:17:40.703Z,13.48
2023-01-17T18:20:26.630Z,12.35
2023-01-17T18:23:11.529Z,13.75
2023-01-17T18:25:56.857Z,14.43
2023-01-17T18:28:41.979Z,14.52
2023-01-17T18:31:28.744Z,14.07
2023-01-17T18:34:15.899Z,14.13
2023-01-17T18:37:01.199Z,13.32
2023-01-17T18:39:46.536Z,13.18
2023-01-17T18:42:31.694Z,13.60
2023-01-17T18:45:17.099Z,13.43
2023-01-17T18:48:02.605Z,12.88
2023-01-17T18:50:58.691Z,14.18
2023-01-17T18:53:45.071Z,14.13
2023-01-17T18:56:36.408Z,13.95
2023-01-17T18:59:23.333Z,12.98
2023-01-17T19:02:09.409Z,12.15
2023-01-17T19:04:54.324Z,11.32
2023-01-17T19:07:39.470Z,12.43
2023-01-17T19:10:25.841Z,12.68
2023-01-17T19:13:11.418Z,11.68
2023-01-17T19:16:00.127Z,12.07
2023-01-17T19:18:44.978Z,12.55
2023-01-17T19:21:30.312Z,12.30
2023-01-17T19:24:15.680Z,12.45
2023-01-17T19:27:02.562Z,13.07
2023-01-17T19:29:47.708Z,12.77
2023-01-17T19:32:32.720Z,11.77
2023-01-17T19:35:18.662Z,12.02
2023-01-17T19:38:04.011Z,11.25
2023-01-17T19:40:48.887Z,11.55
2023-01-17T19:43:33.694Z,11.55
2023-01-17T19:46:19.574Z,11.98
2023-01-17T19:49:06.883Z,12.18
2023-01-17T19:51:52.195Z,11.75
2023-01-17T19:54:37.351Z,12.23
2023-01-17T19:57:24.219Z,11.70
2023-01-17T20:00:13.170Z,12.70
2023-01-17T20:02:58.312Z,11.55
2023-01-17T20:05:44.874Z,13.23
2023-01-17T20:08:29.902Z,12.77
2023-01-17T20:11:18.518Z,12.77
2023-01-17T20:14:07.632Z,13.15
2023-01-17T20:16:53.602Z,12.07
2023-01-17T20:19:38.438Z,13.18
2023-01-17T20:22:23.435Z,12.77
2023-01-17T20:25:09.511Z,13.23
2023-01-17T20:27:55.398Z,15.25
2023-01-17T20:30:40.765Z,12.93
2023-01-17T20:33:27.110Z,13.57
2023-01-17T20:36:14.864Z,13.88
2023-01-17T20:39:03.863Z,13.80
2023-01-17T20:41:51.384Z,12.37
2023-01-17T20:44:37.417Z,13.18
2023-01-17T20:47:24.258Z,13.25
2023-01-17T20:50:10.088Z,12.82
2023-01-17T20:52:55.048Z,12.80
2023-01-17T20:55:40.325Z,13.10
2023-01-17T20:58:25.410Z,13.02
2023-01-17T21:01:13.605Z,12.82
2023-01-17T21:03:59.034Z,12.43
2023-01-17T21:06:44.367Z,12.52
2023-01-17T21:09:29.453Z,12.77
2023-01-17T21:12:16.004Z,12.80
2023-01-17T21:15:01.358Z,12.60
2023-01-17T21:17:46.418Z,12.32
2023-01-17T21:20:34.640Z,12.30
2023-01-17T21:23:20.186Z,12.80
2023-01-17T21:26:07.075Z,12.70
2023-01-17T21:28:52.517Z,13.20
2023-01-17T21:31:40.203Z,13.43
2023-01-17T21:34:25.585Z,12.45
2023-01-17T21:37:10.720Z,12.43
2023-01-17T21:39:56.917Z,12.48
2023-01-17T21:42:41.923Z,12.20
2023-01-17T21:45:31.885Z,12.82
2023-01-17T21:51:06.071Z,11.77
2023-01-17T21:53:51.295Z,11.95
2023-01-17T21:56:55.153Z,11.52
2023-01-17T21:59:40.542Z,11.63
2023-01-17T22:02:25.588Z,12.05
2023-01-17T22:05:11.067Z,12.20
2023-01-17T22:08:11.202Z,12.38
2023-01-17T22:10:56.248Z,15.90
2023-01-17T22:13:43.398Z,15.45
2023-01-17T22:16:28.490Z,19.25
2023-01-17T22:19:13.677Z,21.67
2023-01-17T22:21:58.630Z,16.38
2023-01-17T22:24:43.621Z,13.85
2023-01-17T22:27:29.244Z,13.65
2023-01-17T22:30:14.582Z,12.80
2023-01-17T22:32:59.709Z,13.07
2023-01-17T22:35:44.717Z,12.20
2023-01-17T22:38:30.405Z,12.70
2023-01-17T22:41:19.911Z,12.82
2023-01-17T22:44:08.459Z,13.27
2023-01-17T22:46:53.704Z,11.55
2023-01-17T22:49:38.707Z,12.57
2023-01-17T22:52:23.710Z,13.07
2023-01-17T22:55:09.213Z,12.60
2023-01-17T22:57:54.196Z,14.05
2023-01-17T23:00:40.239Z,14.38
2023-01-17T23:03:25.388Z,14.77
2023-01-17T23:06:12.017Z,13.38
2023-01-17T23:09:00.877Z,13.32
2023-01-17T23:11:52.687Z,13.38
2023-01-17T23:14:56.206Z,15.00
2023-01-17T23:17:59.998Z,14.13
2023-01-17T23:20:45.273Z,15.40
2023-01-17T23:23:31.908Z,15.70
2023-01-17T23:26:17.225Z,15.73
2023-01-17T23:29:02.594Z,15.95
2023-01-17T23:31:47.843Z,14.57
2023-01-17T23:34:33.117Z,14.20
2023-01-17T23:37:18.291Z,13.15
2023-01-17T23:40:03.758Z,14.13
2023-01-17T23:43:07.521Z,13.18
2023-01-17T23:45:54.294Z,13.70
2023-01-17T23:48:39.496Z,14.23
2023-01-17T23:51:24.877Z,13.63
2023-01-17T23:54:10.154Z,13.82
2023-01-17T23:56:55.476Z,13.48
2023-01-17T23:59:40.389Z,13.88
